Zabaykal'sk, Russia
Current Conditions -  °F | °C
As of 7:00 AM on Friday 28 Nov 2014 (Local Time) from UIAA Reporting Station
Broken Clouds Broken Clouds  
Wind Chill: -11°   Ceiling: 20000
Heat Index:   Visibility: 6mi
Dew Point: -8°   Wind: 7mph
Humidity: 66%   Direction: 20°NNE
Pressure: 29.77"   Gusts: NA
Location:  49.66°N, 117.31°E
Report Text: UIAA 272200Z 02003MPS 9999 FEW100 BKN200 M17/M22 Q1008 NOSIGRMK QFE698 29CLRD70
Loading
Personal Weather Stations






























Interactive Weather Map New forecast layout! Learn more

10-Day Weather Forecast

Advertisements
Track Severe Weather on mobile